createdAt,value
2016-08-27T00:00:12.673Z,1021.3
2016-08-27T00:01:12.692Z,1021.27
2016-08-27T00:02:12.723Z,1021.26
2016-08-27T00:03:12.745Z,1021.24
2016-08-27T00:04:12.763Z,1021.28
2016-08-27T00:05:12.786Z,1021.28
2016-08-27T00:06:12.821Z,1021.31
2016-08-27T00:07:12.834Z,1021.28
2016-08-27T00:08:12.862Z,1021.32
2016-08-27T00:09:12.883Z,1021.28
2016-08-27T00:10:12.903Z,1021.29
2016-08-27T00:11:12.924Z,1021.3
2016-08-27T00:12:12.947Z,1021.29
2016-08-27T00:13:12.974Z,1021.31
2016-08-27T00:14:12.995Z,1021.31
2016-08-27T00:15:13.015Z,1021.3
2016-08-27T00:16:13.044Z,1021.28
2016-08-27T00:17:13.066Z,1021.23
2016-08-27T00:18:13.088Z,1021.23
2016-08-27T00:19:13.112Z,1021.31
2016-08-27T00:20:13.133Z,1021.34
2016-08-27T00:21:13.153Z,1021.35
2016-08-27T00:22:13.185Z,1021.36
2016-08-27T00:23:13.210Z,1021.36
2016-08-27T00:24:13.235Z,1021.4
2016-08-27T00:25:13.252Z,1021.41
2016-08-27T00:26:13.278Z,1021.43
2016-08-27T00:27:13.298Z,1021.37
2016-08-27T00:28:13.325Z,1021.39
2016-08-27T00:29:13.354Z,1021.41
2016-08-27T00:30:13.363Z,1021.41
2016-08-27T00:31:13.387Z,1021.41
2016-08-27T00:32:13.411Z,1021.45
2016-08-27T00:33:13.434Z,1021.45
2016-08-27T00:34:13.453Z,1021.45
2016-08-27T00:35:13.485Z,1021.46
2016-08-27T00:36:13.501Z,1021.48
2016-08-27T00:37:13.533Z,1021.53
2016-08-27T00:38:13.550Z,1021.5
2016-08-27T00:39:13.719Z,1021.49
2016-08-27T00:40:13.595Z,1021.5
2016-08-27T00:41:13.619Z,1021.47
2016-08-27T00:42:13.637Z,1021.47
2016-08-27T00:43:13.663Z,1021.47
2016-08-27T00:44:13.685Z,1021.48
2016-08-27T00:45:13.711Z,1021.46
2016-08-27T00:46:13.731Z,1021.47
2016-08-27T00:47:13.756Z,1021.45
2016-08-27T00:48:13.776Z,1021.46
2016-08-27T00:49:13.800Z,1021.49
2016-08-27T00:50:13.826Z,1021.5
2016-08-27T00:51:13.844Z,1021.51
2016-08-27T00:52:13.871Z,1021.53
2016-08-27T00:53:13.895Z,1021.46
2016-08-27T00:54:13.914Z,1021.46
2016-08-27T00:55:13.935Z,1021.47
2016-08-27T00:56:13.975Z,1021.52
2016-08-27T00:57:13.984Z,1021.53
2016-08-27T00:58:14.004Z,1021.55
2016-08-27T00:59:14.025Z,1021.56
2016-08-27T01:00:14.055Z,1021.53
2016-08-27T01:01:14.073Z,1021.58
2016-08-27T01:02:14.100Z,1021.59
2016-08-27T01:03:14.123Z,1021.58
2016-08-27T01:04:14.143Z,1021.57
2016-08-27T01:05:14.163Z,1021.59
2016-08-27T01:06:14.189Z,1021.61
2016-08-27T01:07:14.211Z,1021.68
2016-08-27T01:08:14.232Z,1021.66
2016-08-27T01:09:14.261Z,1021.7
2016-08-27T01:10:14.278Z,1021.7
2016-08-27T01:11:14.303Z,1021.71
2016-08-27T01:12:14.324Z,1021.7
2016-08-27T01:13:14.344Z,1021.71
2016-08-27T01:14:14.374Z,1021.7
2016-08-27T01:15:14.393Z,1021.68
2016-08-27T01:16:14.414Z,1021.68
2016-08-27T01:17:14.443Z,1021.68
2016-08-27T01:18:14.465Z,1021.62
2016-08-27T01:19:14.485Z,1021.63
2016-08-27T01:20:14.513Z,1021.66
2016-08-27T01:21:14.527Z,1021.66
2016-08-27T01:22:14.550Z,1021.66
2016-08-27T01:23:14.578Z,1021.65
2016-08-27T01:24:14.604Z,1021.64
2016-08-27T01:25:14.619Z,1021.64
2016-08-27T01:26:14.641Z,1021.69
2016-08-27T01:27:14.663Z,1021.68
2016-08-27T01:28:14.694Z,1021.7
2016-08-27T01:29:14.760Z,1021.69
2016-08-27T01:30:14.735Z,1021.67
2016-08-27T01:31:14.767Z,1021.67
2016-08-27T01:32:14.786Z,1021.68
2016-08-27T01:33:14.805Z,1021.63
2016-08-27T01:34:14.825Z,1021.62
2016-08-27T01:35:14.856Z,1021.59
2016-08-27T01:36:14.869Z,1021.63
2016-08-27T01:37:14.896Z,1021.6
2016-08-27T01:38:14.914Z,1021.59
2016-08-27T01:39:14.945Z,1021.55
2016-08-27T01:40:14.966Z,1021.57
2016-08-27T01:41:14.984Z,1021.58
2016-08-27T01:42:15.005Z,1021.63
2016-08-27T01:43:15.027Z,1021.67
2016-08-27T01:44:15.055Z,1021.65
2016-08-27T01:45:15.071Z,1021.68
2016-08-27T01:46:15.098Z,1021.64
2016-08-27T01:47:15.116Z,1021.61
2016-08-27T01:48:15.138Z,1021.66
2016-08-27T01:49:15.165Z,1021.67
2016-08-27T01:50:15.205Z,1021.61
2016-08-27T01:51:15.213Z,1021.64
2016-08-27T01:52:15.231Z,1021.63
2016-08-27T01:53:15.253Z,1021.6
2016-08-27T01:54:15.274Z,1021.62
2016-08-27T01:55:15.298Z,1021.66
2016-08-27T01:56:15.321Z,1021.63
2016-08-27T01:57:15.346Z,1021.7
2016-08-27T01:58:15.375Z,1021.71
2016-08-27T01:59:15.392Z,1021.72
2016-08-27T02:00:15.414Z,1021.72
2016-08-27T02:01:15.436Z,1021.71
2016-08-27T02:02:15.456Z,1021.7
2016-08-27T02:03:15.484Z,1021.71
2016-08-27T02:04:15.505Z,1021.71
2016-08-27T02:05:15.524Z,1021.71
2016-08-27T02:06:15.551Z,1021.69
2016-08-27T02:07:15.573Z,1021.69
2016-08-27T02:08:15.596Z,1021.68
2016-08-27T02:09:15.616Z,1021.68
2016-08-27T02:10:15.645Z,1021.68
2016-08-27T02:11:15.665Z,1021.68
2016-08-27T02:12:15.681Z,1021.67
2016-08-27T02:13:15.713Z,1021.71
2016-08-27T02:14:15.723Z,1021.76
2016-08-27T02:15:15.755Z,1021.7
2016-08-27T02:16:15.775Z,1021.73
2016-08-27T02:17:15.794Z,1021.72
2016-08-27T02:18:15.826Z,1021.72
2016-08-27T02:19:15.839Z,1021.74
2016-08-27T02:20:15.866Z,1021.75
2016-08-27T02:21:15.888Z,1021.76
2016-08-27T02:22:15.914Z,1021.75
2016-08-27T02:23:15.935Z,1021.76
2016-08-27T02:24:15.956Z,1021.71
2016-08-27T02:25:15.974Z,1021.68
2016-08-27T02:26:15.997Z,1021.72
2016-08-27T02:27:16.026Z,1021.71
2016-08-27T02:28:16.043Z,1021.71
2016-08-27T02:29:16.116Z,1021.73
2016-08-27T02:30:16.094Z,1021.72
2016-08-27T02:31:16.117Z,1021.72
2016-08-27T02:32:16.139Z,1021.76
2016-08-27T02:33:16.157Z,1021.73
2016-08-27T02:34:16.182Z,1021.74
2016-08-27T02:35:16.213Z,1021.76
2016-08-27T02:36:16.229Z,1021.76
2016-08-27T02:37:16.248Z,1021.74
2016-08-27T02:38:16.273Z,1021.74
2016-08-27T02:39:16.306Z,1021.68
2016-08-27T02:40:16.317Z,1021.69
2016-08-27T02:41:16.344Z,1021.74
2016-08-27T02:42:16.364Z,1021.71
2016-08-27T02:43:16.392Z,1021.72
2016-08-27T02:44:16.415Z,1021.72
2016-08-27T02:45:16.434Z,1021.72
2016-08-27T02:46:16.457Z,1021.74
2016-08-27T02:47:16.482Z,1021.78
2016-08-27T02:48:16.498Z,1021.77
2016-08-27T02:49:16.527Z,1021.8
2016-08-27T02:50:16.551Z,1021.86
2016-08-27T02:51:16.575Z,1021.84
2016-08-27T02:52:16.595Z,1021.85
2016-08-27T02:53:16.617Z,1021.89
2016-08-27T02:54:16.644Z,1021.87
2016-08-27T02:55:16.665Z,1021.89
2016-08-27T02:56:16.694Z,1021.87
2016-08-27T02:57:16.715Z,1021.85
2016-08-27T02:58:16.732Z,1021.89
2016-08-27T02:59:16.756Z,1021.86
2016-08-27T03:00:16.781Z,1021.85
2016-08-27T03:01:16.803Z,1021.82
2016-08-27T03:02:16.825Z,1021.8
2016-08-27T03:03:16.845Z,1021.81
2016-08-27T03:04:16.866Z,1021.74
2016-08-27T03:05:16.905Z,1021.74
2016-08-27T03:06:16.912Z,1021.74
2016-08-27T03:07:16.942Z,1021.78
2016-08-27T03:08:16.961Z,1021.81
2016-08-27T03:09:16.982Z,1021.81
2016-08-27T03:10:17.013Z,1021.83
2016-08-27T03:11:17.033Z,1021.8
2016-08-27T03:12:17.055Z,1021.82
2016-08-27T03:13:17.070Z,1021.82
2016-08-27T03:14:17.104Z,1021.8
2016-08-27T03:15:17.127Z,1021.79
2016-08-27T03:16:17.145Z,1021.82
2016-08-27T03:17:17.163Z,1021.77
2016-08-27T03:18:17.185Z,1021.76
2016-08-27T03:19:17.214Z,1021.73
2016-08-27T03:20:17.238Z,1021.71
2016-08-27T03:21:17.252Z,1021.68
2016-08-27T03:22:17.283Z,1021.67
2016-08-27T03:23:17.297Z,1021.69
2016-08-27T03:24:17.326Z,1021.68
2016-08-27T03:25:17.353Z,1021.7
2016-08-27T03:26:17.374Z,1021.66
2016-08-27T03:27:17.394Z,1021.64
2016-08-27T03:28:17.422Z,1021.71
2016-08-27T03:29:17.438Z,1021.7
2016-08-27T03:30:17.459Z,1021.7
2016-08-27T03:31:17.482Z,1021.7
2016-08-27T03:32:17.508Z,1021.74
2016-08-27T03:33:17.524Z,1021.73
2016-08-27T03:34:17.604Z,1021.76
2016-08-27T03:35:17.574Z,1021.75
2016-08-27T03:36:17.592Z,1021.74
2016-08-27T03:37:17.621Z,1021.74
2016-08-27T03:38:17.644Z,1021.73
2016-08-27T03:39:17.662Z,1021.69
2016-08-27T03:40:17.688Z,1021.67
2016-08-27T03:41:17.712Z,1021.7
2016-08-27T03:42:17.732Z,1021.71
2016-08-27T03:43:17.753Z,1021.73
2016-08-27T03:44:17.782Z,1021.74
2016-08-27T03:45:17.802Z,1021.75
2016-08-27T03:46:17.819Z,1021.76
2016-08-27T03:47:17.853Z,1021.76
2016-08-27T03:48:17.874Z,1021.75
2016-08-27T03:49:17.892Z,1021.77
2016-08-27T03:50:17.912Z,1021.74
2016-08-27T03:51:17.944Z,1021.7
2016-08-27T03:52:17.973Z,1021.73
2016-08-27T03:53:17.986Z,1021.74
2016-08-27T03:54:18.012Z,1021.78
2016-08-27T03:55:18.028Z,1021.85
2016-08-27T03:56:18.155Z,1021.87
2016-08-27T03:57:18.072Z,1021.9
2016-08-27T03:58:18.100Z,1021.9
2016-08-27T03:59:18.122Z,1021.86
2016-08-27T04:00:18.137Z,1021.8
2016-08-27T04:01:18.162Z,1021.85
2016-08-27T04:02:18.192Z,1021.86
2016-08-27T04:03:18.214Z,1021.84
2016-08-27T04:04:18.229Z,1021.87
2016-08-27T04:05:18.252Z,1021.85
2016-08-27T04:06:18.279Z,1021.89
2016-08-27T04:07:18.299Z,1021.87
2016-08-27T04:08:18.324Z,1021.89
2016-08-27T04:09:18.452Z,1021.87
2016-08-27T04:10:18.375Z,1021.92
2016-08-27T04:11:18.440Z,1021.87
2016-08-27T04:12:18.413Z,1021.9
2016-08-27T04:13:18.442Z,1021.84
2016-08-27T04:14:18.464Z,1021.86
2016-08-27T04:15:18.486Z,1021.86
2016-08-27T04:16:18.503Z,1021.93
2016-08-27T04:17:18.529Z,1021.88
2016-08-27T04:18:18.545Z,1021.88
2016-08-27T04:19:18.570Z,1021.86
2016-08-27T04:20:18.590Z,1021.9
2016-08-27T04:21:18.617Z,1021.85
2016-08-27T04:22:18.645Z,1021.9
2016-08-27T04:23:18.658Z,1021.87
2016-08-27T04:24:18.692Z,1021.88
2016-08-27T04:25:18.713Z,1021.87
2016-08-27T04:26:18.732Z,1021.84
2016-08-27T04:27:18.754Z,1021.87
2016-08-27T04:28:18.782Z,1021.86
2016-08-27T04:29:18.853Z,1021.87
2016-08-27T04:30:18.820Z,1021.86
2016-08-27T04:31:18.846Z,1021.88
2016-08-27T04:32:18.870Z,1021.87
2016-08-27T04:33:18.885Z,1021.88
2016-08-27T04:34:18.914Z,1021.88
2016-08-27T04:35:18.932Z,1021.86
2016-08-27T04:36:18.956Z,1021.9
2016-08-27T04:37:18.983Z,1021.88
2016-08-27T04:38:19.004Z,1021.89
2016-08-27T04:39:19.022Z,1021.88
2016-08-27T04:40:19.053Z,1021.89
2016-08-27T04:41:19.071Z,1021.88
2016-08-27T04:42:19.104Z,1021.92
2016-08-27T04:43:19.121Z,1021.91
2016-08-27T04:44:19.135Z,1021.95
2016-08-27T04:45:19.165Z,1021.97
2016-08-27T04:46:19.185Z,1021.98
2016-08-27T04:47:19.208Z,1021.97
2016-08-27T04:48:19.234Z,1022.01
2016-08-27T04:49:19.265Z,1022.04
2016-08-27T04:50:19.274Z,1022.01
2016-08-27T04:51:19.301Z,1021.99
2016-08-27T04:52:19.325Z,1022.02
2016-08-27T04:53:19.349Z,1021.99
2016-08-27T04:54:19.371Z,1022
2016-08-27T04:55:19.395Z,1021.98
2016-08-27T04:56:19.415Z,1022.01
2016-08-27T04:57:19.436Z,1021.99
2016-08-27T04:58:19.466Z,1022.01
2016-08-27T04:59:19.483Z,1022
2016-08-27T05:00:19.505Z,1022.03
2016-08-27T05:01:19.535Z,1022.01
2016-08-27T05:02:19.552Z,1021.99
2016-08-27T05:03:19.574Z,1021.97
2016-08-27T05:04:19.604Z,1022.02
2016-08-27T05:05:19.624Z,1022.02
2016-08-27T05:06:19.654Z,1022.03
2016-08-27T05:07:19.669Z,1022.05
2016-08-27T05:08:19.740Z,1022.07
2016-08-27T05:09:19.720Z,1022.07
2016-08-27T05:10:19.739Z,1022.04
2016-08-27T05:11:19.765Z,1022.07
2016-08-27T05:12:19.783Z,1022.09
2016-08-27T05:13:19.809Z,1022.04
2016-08-27T05:14:19.837Z,1022.1
2016-08-27T05:15:19.855Z,1022.13
2016-08-27T05:16:19.876Z,1022.1
2016-08-27T05:17:19.900Z,1022.15
2016-08-27T05:18:19.924Z,1022.15
2016-08-27T05:19:19.957Z,1022.17
2016-08-27T05:20:19.981Z,1022.17
2016-08-27T05:21:19.999Z,1022.15
2016-08-27T05:22:20.024Z,1022.14
2016-08-27T05:23:20.043Z,1022.16
2016-08-27T05:24:20.063Z,1022.18
2016-08-27T05:25:20.093Z,1022.16
2016-08-27T05:26:20.113Z,1022.17
2016-08-27T05:27:20.136Z,1022.2
2016-08-27T05:28:20.163Z,1022.16
2016-08-27T05:29:20.184Z,1022.13
2016-08-27T05:30:20.256Z,1022.12
2016-08-27T05:31:20.233Z,1022.14
2016-08-27T05:32:20.256Z,1022.15
2016-08-27T05:33:20.273Z,1022.14
2016-08-27T05:34:20.301Z,1022.12
2016-08-27T05:35:20.334Z,1022.16
2016-08-27T05:36:20.348Z,1022.17
2016-08-27T05:37:20.375Z,1022.17
2016-08-27T05:38:20.393Z,1022.19
2016-08-27T05:39:20.422Z,1022.22
2016-08-27T05:40:20.445Z,1022.19
2016-08-27T05:41:20.525Z,1022.23
2016-08-27T05:42:20.496Z,1022.23
2016-08-27T05:43:20.513Z,1022.23
2016-08-27T05:44:20.543Z,1022.23
2016-08-27T05:45:20.562Z,1022.21
2016-08-27T05:46:20.595Z,1022.26
2016-08-27T05:47:20.612Z,1022.23
2016-08-27T05:48:20.633Z,1022.26
2016-08-27T05:49:20.664Z,1022.25
2016-08-27T05:50:20.685Z,1022.25
2016-08-27T05:51:20.710Z,1022.26
2016-08-27T05:52:20.733Z,1022.28
2016-08-27T05:53:20.754Z,1022.33
2016-08-27T05:54:20.785Z,1022.33
2016-08-27T05:55:20.805Z,1022.38
2016-08-27T05:56:20.829Z,1022.35
2016-08-27T05:57:20.862Z,1022.35
2016-08-27T05:58:20.874Z,1022.4
2016-08-27T05:59:20.905Z,1022.44
2016-08-27T06:00:20.923Z,1022.39
2016-08-27T06:01:20.999Z,1022.36
2016-08-27T06:02:20.986Z,1022.41
2016-08-27T06:03:21.001Z,1022.42
2016-08-27T06:04:21.035Z,1022.41
2016-08-27T06:05:21.052Z,1022.41
2016-08-27T06:06:21.076Z,1022.45
2016-08-27T06:07:21.110Z,1022.47
2016-08-27T06:08:21.133Z,1022.48
2016-08-27T06:09:21.154Z,1022.49
2016-08-27T06:10:21.174Z,1022.5
2016-08-27T06:11:21.200Z,1022.5
2016-08-27T06:12:21.231Z,1022.5
2016-08-27T06:13:21.255Z,1022.46
2016-08-27T06:14:21.285Z,1022.5
2016-08-27T06:15:21.303Z,1022.49
2016-08-27T06:16:21.334Z,1022.51
2016-08-27T06:17:21.353Z,1022.52
2016-08-27T06:18:21.387Z,1022.5
2016-08-27T06:19:21.413Z,1022.5
2016-08-27T06:20:21.488Z,1022.53
2016-08-27T06:21:21.470Z,1022.55
2016-08-27T06:22:21.484Z,1022.52
2016-08-27T06:23:21.511Z,1022.49
2016-08-27T06:24:21.549Z,1022.46
2016-08-27T06:25:21.571Z,1022.51
2016-08-27T06:26:21.593Z,1022.53
2016-08-27T06:27:21.616Z,1022.52
2016-08-27T06:28:21.644Z,1022.53
2016-08-27T06:29:21.666Z,1022.51
2016-08-27T06:30:21.695Z,1022.54
2016-08-27T06:31:21.725Z,1022.52
2016-08-27T06:32:21.756Z,1022.58
2016-08-27T06:33:21.778Z,1022.6
2016-08-27T06:34:21.806Z,1022.56
2016-08-27T06:35:21.829Z,1022.58
2016-08-27T06:36:21.934Z,1022.63
2016-08-27T06:37:21.884Z,1022.66
2016-08-27T06:38:21.914Z,1022.6
2016-08-27T06:39:21.938Z,1022.6
2016-08-27T06:40:21.966Z,1022.58
2016-08-27T06:41:21.999Z,1022.56
2016-08-27T06:42:22.025Z,1022.59
2016-08-27T06:43:22.054Z,1022.61
2016-08-27T06:44:22.081Z,1022.56
2016-08-27T06:45:22.111Z,1022.6
2016-08-27T06:46:22.133Z,1022.56
2016-08-27T06:47:22.260Z,1022.61
2016-08-27T06:48:22.184Z,1022.66
2016-08-27T06:49:22.219Z,1022.72
2016-08-27T06:50:22.248Z,1022.73
2016-08-27T06:51:22.269Z,1022.73
2016-08-27T06:52:22.302Z,1022.62
2016-08-27T06:53:22.324Z,1022.7
2016-08-27T06:54:22.355Z,1022.7
2016-08-27T06:55:22.384Z,1022.75
2016-08-27T06:56:22.413Z,1022.75
2016-08-27T06:57:22.439Z,1022.77
2016-08-27T06:58:22.463Z,1022.75
2016-08-27T06:59:22.494Z,1022.8
2016-08-27T07:00:22.525Z,1022.8
2016-08-27T07:01:22.548Z,1022.75
2016-08-27T07:02:22.586Z,1022.77
2016-08-27T07:03:22.605Z,1022.73
2016-08-27T07:04:22.636Z,1022.72
2016-08-27T07:05:22.665Z,1022.7
2016-08-27T07:06:22.895Z,1022.67
2016-08-27T07:07:22.874Z,1022.68
2016-08-27T07:08:22.900Z,1022.76
2016-08-27T07:09:22.938Z,1022.8
2016-08-27T07:10:22.907Z,1022.81
2016-08-27T07:11:23.439Z,1022.79
2016-08-27T07:12:22.908Z,1022.79
2016-08-27T07:13:22.984Z,1022.79
2016-08-27T07:14:22.914Z,1022.79
2016-08-27T07:15:22.944Z,1022.83
2016-08-27T07:16:22.978Z,1022.77
2016-08-27T07:17:23.044Z,1022.88
2016-08-27T07:18:23.024Z,1022.87
2016-08-27T07:19:23.055Z,1022.88
2016-08-27T07:20:23.084Z,1022.81
2016-08-27T07:21:23.111Z,1022.87
2016-08-27T07:22:23.135Z,1022.89
2016-08-27T07:23:23.164Z,1022.82
2016-08-27T07:24:23.191Z,1022.84
2016-08-27T07:25:23.215Z,1022.81
2016-08-27T07:26:23.249Z,1022.9
2016-08-27T07:27:23.281Z,1022.92
2016-08-27T07:28:23.304Z,1022.88
2016-08-27T07:29:23.335Z,1022.84
2016-08-27T07:30:23.362Z,1022.81
2016-08-27T07:31:23.390Z,1022.82
2016-08-27T07:32:23.419Z,1022.85
2016-08-27T07:33:23.444Z,1022.82
2016-08-27T07:34:23.475Z,1022.81
2016-08-27T07:35:23.499Z,1022.81
2016-08-27T07:36:23.534Z,1022.78
2016-08-27T07:37:23.566Z,1022.81
2016-08-27T07:38:23.588Z,1022.91
2016-08-27T07:39:23.611Z,1022.81
2016-08-27T07:40:23.644Z,1022.78
2016-08-27T07:41:23.666Z,1022.77
2016-08-27T07:42:23.702Z,1022.74
2016-08-27T07:43:23.732Z,1022.81
2016-08-27T07:44:23.755Z,1022.87
2016-08-27T07:45:23.783Z,1022.87
2016-08-27T07:46:23.814Z,1022.83
2016-08-27T07:47:23.843Z,1022.83
2016-08-27T07:48:23.866Z,1022.79
2016-08-27T07:49:23.893Z,1022.8
2016-08-27T07:50:23.918Z,1022.86
2016-08-27T07:51:23.948Z,1022.81
2016-08-27T07:52:23.973Z,1022.78
2016-08-27T07:53:24.014Z,1022.84
2016-08-27T07:54:24.038Z,1022.85
2016-08-27T07:55:24.071Z,1022.79
2016-08-27T07:56:24.093Z,1022.78
2016-08-27T07:57:24.111Z,1022.8
2016-08-27T07:58:24.199Z,1022.76
2016-08-27T07:59:24.180Z,1022.78
2016-08-27T08:00:24.255Z,1022.83
2016-08-27T08:01:24.222Z,1022.81
2016-08-27T08:02:24.257Z,1022.84
2016-08-27T08:03:24.284Z,1022.83
2016-08-27T08:04:24.307Z,1022.82
2016-08-27T08:05:24.334Z,1022.83
2016-08-27T08:06:24.371Z,1022.81
2016-08-27T08:07:24.387Z,1022.79
2016-08-27T08:08:24.423Z,1022.81
2016-08-27T08:09:24.446Z,1022.8
2016-08-27T08:10:24.478Z,1022.8
2016-08-27T08:11:24.550Z,1022.81
2016-08-27T08:12:24.527Z,1022.87
2016-08-27T08:13:24.554Z,1022.84
2016-08-27T08:14:24.584Z,1022.86
2016-08-27T08:15:24.609Z,1022.85
2016-08-27T08:16:24.645Z,1022.81
2016-08-27T08:17:24.661Z,1022.8
2016-08-27T08:18:24.694Z,1022.79
2016-08-27T08:19:24.723Z,1022.76
2016-08-27T08:20:24.796Z,1022.79
2016-08-27T08:21:24.777Z,1022.81
2016-08-27T08:22:24.805Z,1022.84
2016-08-27T08:23:24.823Z,1022.86
2016-08-27T08:24:24.854Z,1022.87
2016-08-27T08:25:24.885Z,1022.81
2016-08-27T08:26:24.904Z,1022.75
2016-08-27T08:27:24.935Z,1022.75
2016-08-27T08:28:24.966Z,1022.71
2016-08-27T08:29:24.997Z,1022.7
2016-08-27T08:30:25.016Z,1022.72
2016-08-27T08:31:25.043Z,1022.78
2016-08-27T08:32:25.072Z,1022.74
2016-08-27T08:33:25.094Z,1022.75
2016-08-27T08:34:25.126Z,1022.75
2016-08-27T08:35:25.157Z,1022.76
2016-08-27T08:36:25.186Z,1022.76
2016-08-27T08:37:25.204Z,1022.71
2016-08-27T08:38:25.227Z,1022.73
2016-08-27T08:39:25.259Z,1022.68
2016-08-27T08:40:25.291Z,1022.7
2016-08-27T08:41:25.309Z,1022.69
2016-08-27T08:42:25.343Z,1022.72
2016-08-27T08:43:25.363Z,1022.7
2016-08-27T08:44:25.395Z,1022.74
2016-08-27T08:45:25.421Z,1022.74
2016-08-27T08:46:25.453Z,1022.75
2016-08-27T08:47:25.474Z,1022.77
2016-08-27T08:48:25.502Z,1022.75
2016-08-27T08:49:25.531Z,1022.71
2016-08-27T08:50:25.558Z,1022.69
2016-08-27T08:51:25.584Z,1022.67
2016-08-27T08:52:25.615Z,1022.66
2016-08-27T08:53:25.643Z,1022.66
2016-08-27T08:54:25.672Z,1022.66
2016-08-27T08:55:25.694Z,1022.65
2016-08-27T08:56:25.725Z,1022.67
2016-08-27T08:57:25.755Z,1022.67
2016-08-27T08:58:25.775Z,1022.68
2016-08-27T08:59:25.804Z,1022.69
2016-08-27T09:00:25.836Z,1022.73
2016-08-27T09:01:25.861Z,1022.74
2016-08-27T09:02:25.892Z,1022.69
2016-08-27T09:03:25.916Z,1022.69
2016-08-27T09:04:25.938Z,1022.68
2016-08-27T09:05:25.967Z,1022.68
2016-08-27T09:06:25.999Z,1022.66
2016-08-27T09:07:26.019Z,1022.68
2016-08-27T09:08:26.045Z,1022.66
2016-08-27T09:09:26.076Z,1022.64
2016-08-27T09:10:26.106Z,1022.67
2016-08-27T09:11:26.136Z,1022.65
2016-08-27T09:12:26.156Z,1022.65
2016-08-27T09:13:26.256Z,1022.66
2016-08-27T09:14:26.213Z,1022.59
2016-08-27T09:15:26.244Z,1022.6
2016-08-27T09:16:26.266Z,1022.6
2016-08-27T09:17:26.294Z,1022.58
2016-08-27T09:18:26.322Z,1022.52
2016-08-27T09:19:26.349Z,1022.55
2016-08-27T09:20:26.375Z,1022.55
2016-08-27T09:21:26.401Z,1022.56
2016-08-27T09:22:26.522Z,1022.57
2016-08-27T09:23:26.457Z,1022.55
2016-08-27T09:24:26.483Z,1022.56
2016-08-27T09:25:26.514Z,1022.58
2016-08-27T09:26:26.537Z,1022.6
2016-08-27T09:27:26.561Z,1022.56
2016-08-27T09:28:26.589Z,1022.53
2016-08-27T09:29:26.615Z,1022.51
2016-08-27T09:30:26.655Z,1022.52
2016-08-27T09:31:26.674Z,1022.5
2016-08-27T09:32:26.703Z,1022.5
2016-08-27T09:33:26.725Z,1022.38
2016-08-27T09:34:26.754Z,1022.46
2016-08-27T09:35:26.775Z,1022.44
2016-08-27T09:36:26.800Z,1022.45
2016-08-27T09:37:26.834Z,1022.45
2016-08-27T09:38:26.868Z,1022.45
2016-08-27T09:39:26.885Z,1022.45
2016-08-27T09:40:26.914Z,1022.46
2016-08-27T09:41:26.944Z,1022.49
2016-08-27T09:42:26.966Z,1022.51
2016-08-27T09:43:26.994Z,1022.53
2016-08-27T09:44:27.022Z,1022.47
2016-08-27T09:45:27.044Z,1022.45
2016-08-27T09:46:27.075Z,1022.44
2016-08-27T09:47:27.104Z,1022.44
2016-08-27T09:48:27.125Z,1022.44
2016-08-27T09:49:27.154Z,1022.43
2016-08-27T09:50:27.182Z,1022.47
2016-08-27T09:51:27.205Z,1022.43
2016-08-27T09:52:27.231Z,1022.42
2016-08-27T09:53:27.265Z,1022.45
2016-08-27T09:54:27.283Z,1022.41
2016-08-27T09:55:27.313Z,1022.37
2016-08-27T09:56:27.348Z,1022.39
2016-08-27T09:57:27.372Z,1022.4
2016-08-27T09:58:27.398Z,1022.36
2016-08-27T09:59:27.425Z,1022.37
2016-08-27T10:00:27.456Z,1022.38
2016-08-27T10:01:27.484Z,1022.4
2016-08-27T10:02:27.506Z,1022.43
2016-08-27T10:03:27.535Z,1022.43
2016-08-27T10:04:27.564Z,1022.47
2016-08-27T10:05:27.589Z,1022.49
2016-08-27T10:06:27.615Z,1022.42
2016-08-27T10:07:27.644Z,1022.38
2016-08-27T10:08:27.668Z,1022.39
2016-08-27T10:09:27.694Z,1022.33
2016-08-27T10:10:27.726Z,1022.3
2016-08-27T10:11:27.755Z,1022.3
2016-08-27T10:12:27.785Z,1022.27
2016-08-27T10:13:27.808Z,1022.25
2016-08-27T10:14:27.842Z,1022.31
2016-08-27T10:15:27.874Z,1022.22
2016-08-27T10:16:27.895Z,1022.23
2016-08-27T10:17:27.918Z,1022.24
2016-08-27T10:18:27.944Z,1022.22
2016-08-27T10:19:27.986Z,1022.17
2016-08-27T10:20:28.002Z,1022.25
2016-08-27T10:21:28.024Z,1022.21
2016-08-27T10:22:28.054Z,1022.17
2016-08-27T10:23:28.087Z,1022.13
2016-08-27T10:24:28.105Z,1022.12
2016-08-27T10:25:28.139Z,1022.14
2016-08-27T10:26:28.163Z,1022.07
2016-08-27T10:27:28.197Z,1022.06
2016-08-27T10:28:28.214Z,1022.05
2016-08-27T10:29:28.244Z,1022
2016-08-27T10:30:28.272Z,1022.02
2016-08-27T10:31:28.305Z,1021.96
2016-08-27T10:32:28.330Z,1022.01
2016-08-27T10:33:28.356Z,1022.02
2016-08-27T10:34:28.391Z,1022.03
2016-08-27T10:35:28.414Z,1022.01
2016-08-27T10:36:28.434Z,1022.07
2016-08-27T10:37:28.464Z,1021.99
2016-08-27T10:38:28.495Z,1022.03
2016-08-27T10:39:28.565Z,1021.98
2016-08-27T10:40:28.556Z,1022.01
2016-08-27T10:41:28.574Z,1021.97
2016-08-27T10:42:28.604Z,1021.91
2016-08-27T10:43:28.624Z,1021.92
2016-08-27T10:44:28.659Z,1021.96
2016-08-27T10:45:28.690Z,1021.93
2016-08-27T10:46:28.711Z,1021.91
2016-08-27T10:47:28.740Z,1021.98
2016-08-27T10:48:28.767Z,1021.94
2016-08-27T10:49:28.813Z,1021.89
2016-08-27T10:50:28.818Z,1021.88
2016-08-27T10:51:28.846Z,1021.88
2016-08-27T10:52:28.873Z,1021.91
2016-08-27T10:53:28.898Z,1021.91
2016-08-27T10:54:28.926Z,1021.87
2016-08-27T10:55:28.955Z,1021.93
2016-08-27T10:56:28.979Z,1021.85
2016-08-27T10:57:29.005Z,1021.86
2016-08-27T10:58:29.036Z,1021.8
2016-08-27T10:59:29.061Z,1021.83
2016-08-27T11:00:29.082Z,1021.83
2016-08-27T11:01:29.114Z,1021.81
2016-08-27T11:02:29.151Z,1021.74
2016-08-27T11:03:29.176Z,1021.8
2016-08-27T11:04:29.200Z,1021.85
2016-08-27T11:05:29.223Z,1021.79
2016-08-27T11:06:29.252Z,1021.82
2016-08-27T11:07:29.279Z,1021.82
2016-08-27T11:08:29.303Z,1021.83
2016-08-27T11:09:29.334Z,1021.79
2016-08-27T11:10:29.353Z,1021.8
2016-08-27T11:11:29.396Z,1021.81
2016-08-27T11:12:29.420Z,1021.75
2016-08-27T11:13:29.435Z,1021.76
2016-08-27T11:14:29.463Z,1021.73
2016-08-27T11:15:29.490Z,1021.69
2016-08-27T11:16:29.517Z,1021.7
2016-08-27T11:17:29.545Z,1021.63
2016-08-27T11:18:29.577Z,1021.6
2016-08-27T11:19:29.608Z,1021.65
2016-08-27T11:20:29.624Z,1021.58
2016-08-27T11:21:29.649Z,1021.6
2016-08-27T11:22:29.683Z,1021.57
2016-08-27T11:23:29.704Z,1021.58
2016-08-27T11:24:29.735Z,1021.55
2016-08-27T11:25:29.764Z,1021.57
2016-08-27T11:26:29.782Z,1021.52
2016-08-27T11:27:29.808Z,1021.55
2016-08-27T11:28:29.842Z,1021.55
2016-08-27T11:29:29.876Z,1021.53
2016-08-27T11:30:29.904Z,1021.55
2016-08-27T11:31:29.918Z,1021.54
2016-08-27T11:32:29.950Z,1021.54
2016-08-27T11:33:29.972Z,1021.57
2016-08-27T11:34:30.008Z,1021.57
2016-08-27T11:35:30.026Z,1021.53
2016-08-27T11:36:30.067Z,1021.57
2016-08-27T11:37:30.084Z,1021.53
2016-08-27T11:38:30.114Z,1021.51
2016-08-27T11:39:30.154Z,1021.49
2016-08-27T11:40:30.182Z,1021.53
2016-08-27T11:41:30.300Z,1021.53
2016-08-27T11:42:30.224Z,1021.52
2016-08-27T11:43:30.247Z,1021.5
2016-08-27T11:44:30.278Z,1021.47
2016-08-27T11:45:30.296Z,1021.48
2016-08-27T11:46:30.325Z,1021.49
2016-08-27T11:47:30.354Z,1021.5
2016-08-27T11:48:30.393Z,1021.48
2016-08-27T11:49:30.416Z,1021.5
2016-08-27T11:50:30.436Z,1021.48
2016-08-27T11:51:30.467Z,1021.45
2016-08-27T11:52:30.500Z,1021.48
2016-08-27T11:53:30.515Z,1021.44
2016-08-27T11:54:30.542Z,1021.38
2016-08-27T11:55:30.575Z,1021.39
2016-08-27T11:56:30.594Z,1021.44
2016-08-27T11:57:30.625Z,1021.4
2016-08-27T11:58:30.666Z,1021.36
2016-08-27T11:59:30.685Z,1021.37
2016-08-27T12:00:30.704Z,1021.31
2016-08-27T12:01:30.736Z,1021.34
2016-08-27T12:02:30.764Z,1021.3
2016-08-27T12:03:30.796Z,1021.28
2016-08-27T12:04:30.826Z,1021.29
2016-08-27T12:05:30.849Z,1021.25
2016-08-27T12:06:30.875Z,1021.28
2016-08-27T12:07:30.906Z,1021.27
2016-08-27T12:08:30.935Z,1021.31